Terminal Aerodrome Forecast
Issued by NWS

Home | Current Version | Previous Version | Text Only | Print | Product List | Glossary On
Versions: 1 2 3 4 5 6 7 8 9 10 11 12
122
FTUS44 KEWX 072338
TAFSSF
TAF
KSSF 072338Z 0800/0824 20004KT P6SM FEW250
     FM080700 36011KT P6SM FEW250
     FM080900 01012G22KT P6SM SCT250=

USA.gov is the U.S. government's official web portal to all federal, state and local government web resources and services.